Change the Weather History Date:

Friday, April 4, 2014

  Actual Average (KFSD) Record (KFSD)
Temperature  
Mean Temperature 32 °F 41 °F  
Max Temperature 37 °F 53 °F 83 °F (1929)
Min Temperature 28 °F 30 °F 5 °F (1899)
Degree Days  
Heating Degree Days 32 24  
Month to date heating degree days 98  
Since 1 July heating degree days 6943  
Cooling Degree Days 0 0  
Month to date cooling degree days 0  
Year to date cooling degree days 0  
Moisture  
Dew Point 29 °F    
Average Humidity 84    
Maximum Humidity 93    
Minimum Humidity 70    
Precipitation  
Precipitation 0.00 in 0.09 in 1.02 in (1957)
Month to date precipitation 0.35  
Year to date precipitation 3.27  
Snow  
Snow 0.00 in 0.20 in 8.40 in (1957)
Month to date snowfall 0.8  
Since 1 July snowfall 40.7  
Snow Depth -    
Sea Level Pressure  
Sea Level Pressure 29.97 in    
Wind  
Wind Speed 13 mph (NNW)    
Max Wind Speed 22 mph    
Max Gust Speed 31 mph    
Visibility 8 miles    
Events Snow    
T = Trace of Precipitation, MM = Missing Value Source: NWS Daily Summary

Daily Weather History Graph

Daily Weather History Graph

Search for Another Location

Airport or City:

Trip Planner

Search our weather history database for the weather conditions in past years. The results will help you decide how hot, cold, wet, or windy it might be!

Date:

Astronomy

Apr. 04, 2014 Rise Set
Actual Time 7:01 AM CDT 7:55 PM CDT
Civil Twilight 6:31 AM CDT 8:24 PM CDT
Nautical Twilight 5:57 AM CDT 8:59 PM CDT
Astronomical Twilight 5:21 AM CDT 9:35 PM CDT
Moon 10:12 AM CDT (4/4) 12:21 AM CDT (4/4)
Length of Visible Light 13h 52m
Length of Day
12h 54m
Waxing Crescent, 25% of the Moon is Illuminated
Apr 4
Waxing Crescent
Apr 7
First Quarter
Apr 15
Full
Apr 22
Last Quarter
Apr 29
New

Hourly Weather History & Observations

Time (CDT) Temp. Windchill Dew Point Humidity Pressure Visibility Wind Dir Wind Speed Gust Speed Precip Events Conditions
12:15 AM 32.0 °F 22.5 °F 28.4 °F 87% 29.80 in 2.5 mi North 12.7 mph 18.4 mph N/A Snow Light Snow
12:34 AM 32.0 °F 23.0 °F 28.4 °F 87% 29.81 in 2.0 mi North 11.5 mph 18.4 mph N/A Snow Light Snow
12:55 AM 32.0 °F 22.1 °F 28.4 °F 87% 29.81 in 1.8 mi North 13.8 mph - N/A Snow Light Snow
1:15 AM 30.2 °F 19.8 °F 28.4 °F 93% 29.81 in 3.0 mi North 13.8 mph - N/A Snow Light Snow
1:35 AM 32.0 °F 23.0 °F 28.4 °F 87% 29.81 in 5.0 mi North 11.5 mph - N/A   Overcast
1:55 AM 32.0 °F 23.0 °F 28.4 °F 87% 29.82 in 7.0 mi North 11.5 mph - N/A   Overcast
2:15 AM 32.0 °F 21.2 °F 28.4 °F 87% 29.83 in 4.0 mi North 16.1 mph - N/A   Overcast
2:35 AM 32.0 °F 21.6 °F 28.4 °F 87% 29.83 in 7.0 mi North 15.0 mph - N/A   Overcast
2:55 AM 32.0 °F 22.1 °F 28.4 °F 87% 29.84 in 7.0 mi North 13.8 mph 23.0 mph N/A   Overcast
3:14 AM 32.0 °F 21.6 °F 28.4 °F 87% 29.84 in 7.0 mi North 15.0 mph 19.6 mph N/A   Overcast
3:35 AM 32.0 °F 22.1 °F 28.4 °F 87% 29.84 in 7.0 mi North 13.8 mph 17.3 mph N/A   Overcast
3:55 AM 32.0 °F 22.5 °F 28.4 °F 87% 29.84 in 5.0 mi NNW 12.7 mph - N/A Snow Light Snow
4:14 AM 32.0 °F 23.0 °F 30.2 °F 93% 29.84 in 7.0 mi NNW 11.5 mph - N/A   Overcast
4:35 AM 32.0 °F 22.5 °F 30.2 °F 93% 29.85 in 7.0 mi NNW 12.7 mph 18.4 mph N/A   Overcast
4:55 AM 32.0 °F 21.6 °F 30.2 °F 93% 29.85 in 7.0 mi NNW 15.0 mph 19.6 mph N/A   Overcast
5:15 AM 32.0 °F 22.1 °F 30.2 °F 93% 29.86 in 7.0 mi North 13.8 mph 18.4 mph N/A   Overcast
5:35 AM 32.0 °F 21.2 °F 30.2 °F 93% 29.86 in 7.0 mi NNW 16.1 mph - N/A   Overcast
5:55 AM 32.0 °F 20.5 °F 30.2 °F 93% 29.86 in 3.0 mi NNW 18.4 mph 25.3 mph N/A Snow Light Snow
6:15 AM 32.0 °F 20.8 °F 30.2 °F 93% 29.87 in 3.0 mi NNW 17.3 mph 25.3 mph N/A Snow Light Snow
6:35 AM 32.0 °F 20.1 °F 30.2 °F 93% 29.88 in 5.0 mi NNW 19.6 mph 23.0 mph N/A   Overcast
6:55 AM 32.0 °F 19.8 °F 30.2 °F 93% 29.88 in 4.0 mi NNW 20.7 mph 31.1 mph N/A   Overcast
7:15 AM 32.0 °F 19.5 °F 30.2 °F 93% 29.90 in 3.0 mi NNW 21.9 mph 28.8 mph N/A   Overcast
7:35 AM 32.0 °F 19.5 °F 30.2 °F 93% 29.91 in 4.0 mi North 21.9 mph 28.8 mph N/A   Overcast
7:54 AM 32.0 °F 19.8 °F 30.2 °F 93% 29.92 in 2.5 mi NNW 20.7 mph - N/A   Overcast
8:15 AM 32.0 °F 20.1 °F 28.4 °F 87% 29.92 in 4.0 mi NNW 19.6 mph 23.0 mph N/A   Overcast
8:35 AM 32.0 °F 20.1 °F 28.4 °F 87% 29.93 in 7.0 mi NNW 19.6 mph 24.2 mph N/A   Overcast
8:55 AM 32.0 °F 21.2 °F 28.4 °F 87% 29.93 in 7.0 mi NNW 16.1 mph - N/A   Overcast
9:15 AM 32.0 °F 20.5 °F 28.4 °F 87% 29.95 in 10.0 mi NNW 18.4 mph 23.0 mph N/A   Overcast
9:35 AM 33.8 °F 23.2 °F 30.2 °F 87% 29.95 in 7.0 mi NNW 17.3 mph 24.2 mph N/A   Overcast
9:55 AM 33.8 °F 21.9 °F 30.2 °F 87% 29.96 in 4.0 mi NNW 21.9 mph 28.8 mph N/A   Haze
10:15 AM 33.8 °F 23.2 °F 30.2 °F 87% 29.97 in 10.0 mi NNW 17.3 mph 24.2 mph N/A   Overcast
10:35 AM 33.8 °F 22.5 °F 30.2 °F 87% 29.98 in 10.0 mi NNW 19.6 mph 23.0 mph N/A   Overcast
10:55 AM 33.8 °F 23.9 °F 30.2 °F 87% 29.99 in 10.0 mi NNW 15.0 mph 25.3 mph N/A   Overcast
11:15 AM 35.6 °F 25.2 °F 30.2 °F 81% 29.99 in 10.0 mi NNW 18.4 mph 21.9 mph N/A   Overcast
11:35 AM 35.6 °F 25.5 °F 30.2 °F 81% 29.99 in 10.0 mi NNW 17.3 mph - N/A   Overcast
11:55 AM 35.6 °F 25.2 °F 30.2 °F 81% 30.00 in 10.0 mi NNW 18.4 mph 24.2 mph N/A   Mostly Cloudy
12:15 PM 35.6 °F 25.2 °F 30.2 °F 81% 30.01 in 10.0 mi NNW 18.4 mph 26.5 mph N/A   Mostly Cloudy
12:35 PM 35.6 °F 25.5 °F 30.2 °F 81% 30.02 in 10.0 mi NW 17.3 mph 24.2 mph N/A   Overcast
12:54 PM 35.6 °F 25.2 °F 30.2 °F 81% 30.02 in 10.0 mi NNW 18.4 mph - N/A   Overcast
1:15 PM 35.6 °F 25.9 °F 30.2 °F 81% 30.02 in 10.0 mi NNW 16.1 mph 24.2 mph N/A   Overcast
1:55 PM 35.6 °F 25.5 °F 30.2 °F 81% 30.02 in 10.0 mi NNW 17.3 mph 21.9 mph N/A   Overcast
2:15 PM 35.6 °F 26.2 °F 28.4 °F 75% 30.03 in 10.0 mi NNW 15.0 mph 20.7 mph N/A   Overcast
2:35 PM 35.6 °F 27.1 °F 30.2 °F 81% 30.03 in 10.0 mi NNW 12.7 mph - N/A   Overcast
2:55 PM 35.6 °F 26.6 °F 28.4 °F 75% 30.04 in 10.0 mi NW 13.8 mph 19.6 mph N/A   Overcast
3:15 PM 35.6 °F 26.6 °F 28.4 °F 75% 30.04 in 10.0 mi NW 13.8 mph 18.4 mph N/A   Overcast
3:35 PM 35.6 °F 27.1 °F 30.2 °F 81% 30.03 in 10.0 mi NW 12.7 mph - N/A   Overcast
3:55 PM 35.6 °F 26.6 °F 28.4 °F 75% 30.03 in 10.0 mi NW 13.8 mph - N/A   Overcast
4:15 PM 37.4 °F 30.8 °F 28.4 °F 70% 30.04 in 10.0 mi NW 9.2 mph - N/A   Overcast
4:35 PM 37.4 °F 30.3 °F 28.4 °F 70% 30.04 in 10.0 mi NNW 10.4 mph - N/A   Overcast
4:55 PM 37.4 °F 30.8 °F 28.4 °F 70% 30.03 in 10.0 mi NNW 9.2 mph - N/A   Overcast
5:15 PM 37.4 °F 32.8 °F 30.2 °F 75% 30.04 in 10.0 mi NNW 5.8 mph - N/A   Overcast
5:35 PM 37.4 °F 31.4 °F 30.2 °F 75% 30.04 in 10.0 mi NNW 8.1 mph - N/A   Overcast
5:55 PM 37.4 °F 31.4 °F 30.2 °F 75% 30.05 in 10.0 mi NW 8.1 mph - N/A   Overcast
6:15 PM 37.4 °F 30.3 °F 30.2 °F 75% 30.05 in 10.0 mi NW 10.4 mph - N/A   Overcast
6:35 PM 37.4 °F 30.8 °F 30.2 °F 75% 30.06 in 10.0 mi NW 9.2 mph - N/A   Overcast
6:55 PM 37.4 °F 32.1 °F 28.4 °F 70% 30.06 in 10.0 mi NW 6.9 mph - N/A   Overcast
7:15 PM 37.4 °F 30.8 °F 28.4 °F 70% 30.06 in 10.0 mi NNW 9.2 mph - N/A   Overcast
7:34 PM 35.6 °F 29.9 °F 26.6 °F 70% 30.07 in 10.0 mi NW 6.9 mph - N/A   Overcast
7:55 PM 35.6 °F 28.6 °F 26.6 °F 70% 30.07 in 10.0 mi NNW 9.2 mph - N/A   Overcast
8:15 PM 35.6 °F 31.7 °F 28.4 °F 75% 30.07 in 10.0 mi NNW 4.6 mph - N/A   Overcast
8:34 PM 33.8 °F 30.8 °F 28.4 °F 81% 30.08 in 10.0 mi NNW 3.5 mph - N/A   Scattered Clouds
8:55 PM 33.8 °F - 28.4 °F 81% 30.08 in 10.0 mi Calm Calm - N/A   Clear
9:15 PM 32.0 °F - 28.4 °F 87% 30.08 in 10.0 mi Calm Calm - N/A   Clear
9:34 PM 32.0 °F - 28.4 °F 87% 30.09 in 10.0 mi Calm Calm - N/A   Clear
9:55 PM 32.0 °F - 26.6 °F 80% 30.09 in 10.0 mi Calm Calm - N/A   Clear
10:15 PM 30.2 °F - 26.6 °F 86% 30.09 in 10.0 mi Calm Calm - N/A   Clear
10:35 PM 30.2 °F - 26.6 °F 86% 30.09 in 10.0 mi Calm Calm - N/A   Clear
10:55 PM 28.4 °F - 26.6 °F 93% 30.09 in 10.0 mi Calm Calm - N/A   Clear
11:15 PM 28.4 °F - 24.8 °F 86% 30.09 in 10.0 mi Calm Calm - N/A   Clear
11:35 PM 28.4 °F - 26.6 °F 93% 30.09 in 10.0 mi Calm Calm - N/A   Clear
11:55 PM 28.4 °F - 24.8 °F 86% 30.09 in 10.0 mi Calm Calm - N/A   Clear